Dagmar Aaen — DIXX — position and weather

sailwx.info

Track history (hours):
 
Tides and Currents Weather Stations Pressure Air Temp Water Temp Dewpoint Dewpoint Depression Visibility Wind Speed Wind Dir Waves Ship Positions

Dagmar Aaen

Last reported at 2020-Jan-02 07:53 UTC. Time now 2020-Jan-25 03:27 UTC.
Position N 54°57' E 010°16'.
Warning: this ship's position is 22 days out of date.

Length 24 m; beam 4.8 m; draft 2.5 m.

Type: Sailing vessel. MMSI: 211249810.

Date/timePositionNaut miles runAvg speedWind from/ knotsBaromVisibWave heightAir tempDewpointWater temp
2020-Jan-02 07:53N 54°57' E 010°16'0 0.0
2020-Jan-02 07:25N 54°57' E 010°16'0 0.0
2020-Jan-02 05:30N 54°57' E 010°16'0 0.0
2020-Jan-02 00:28N 54°57' E 010°16'0 0.0
2020-Jan-01 19:13N 54°57' E 010°16'0 0.0
2020-Jan-01 18:12N 54°57' E 010°16'0 0.0
2020-Jan-01 17:53N 54°57' E 010°16'0 0.0
2020-Jan-01 14:50N 54°57' E 010°16'14 4.6
2020-Jan-01 11:49N 55°03' E 010°37'0 0.0
2020-Jan-01 11:30N 55°03' E 010°37'0 0.0
2020-Jan-01 10:00N 55°03' E 010°37'0 0.0
2020-Jan-01 08:28N 55°03' E 010°37'0 0.0
2020-Jan-01 07:30N 55°03' E 010°37'0 0.0
2020-Jan-01 06:00N 55°03' E 010°37'0 0.0
2020-Jan-01 03:30N 55°03' E 010°37'0 0.0
2020-Jan-01 02:30N 55°03' E 010°37'0 0.0
2020-Jan-01 01:30N 55°03' E 010°37'0 0.0
2019-Dec-31 23:25N 55°03' E 010°37'0 0.0
2019-Dec-31 22:00N 55°03' E 010°37'0 0.0
2019-Dec-31 21:00N 55°03' E 010°37'0 0.0
2019-Dec-31 20:29N 55°03' E 010°37'0 0.0
2019-Dec-31 19:00N 55°03' E 010°37'0 0.0
2019-Dec-31 17:57N 55°03' E 010°37'0 0.0
2019-Dec-31 17:30N 55°03' E 010°37'0 0.0
2019-Dec-31 15:30N 55°03' E 010°37'0 0.0
2019-Dec-31 14:30N 55°03' E 010°37'0 0.0
2019-Dec-31 13:59N 55°03' E 010°37'6 3.7
2019-Dec-31 12:23N 54°59' E 010°29'3 3.4
2019-Dec-31 11:23N 54°56' E 010°29'5 1.4
2019-Dec-31 08:00N 54°51' E 010°31'0 0.0
2019-Dec-31 07:30N 54°51' E 010°31'0 0.0
2019-Dec-31 07:00N 54°51' E 010°31'0 0.0
2019-Dec-31 06:30N 54°51' E 010°31'0 0.0
2019-Dec-31 06:00N 54°51' E 010°31'0 0.0
2019-Dec-31 05:30N 54°51' E 010°31'0 0.0
2019-Dec-31 05:00N 54°51' E 010°31'0 0.0
2019-Dec-31 04:30N 54°51' E 010°31'0 0.0
2019-Dec-31 03:00N 54°51' E 010°31'0 0.0
2019-Dec-31 01:00N 54°51' E 010°31'0 0.0
2019-Dec-30 22:00N 54°51' E 010°31'0 0.0
2019-Dec-30 20:00N 54°51' E 010°31'0 0.0
2019-Dec-30 18:00N 54°51' E 010°31'0 0.0
2019-Dec-30 16:00N 54°51' E 010°31'0 0.0
2019-Dec-30 12:00N 54°51' E 010°31'  
Track history (hours):
 
Tides and Currents Weather Stations Pressure Air Temp Water Temp Dewpoint Dewpoint Depression Visibility Wind Speed Wind Dir Waves Ship Positions

Dagmar Aaen

Last reported at 2020-Jan-02 07:53 UTC. Time now 2020-Jan-25 03:27 UTC.
Position N 54°57' E 010°16'.
Warning: this ship's position is 22 days out of date.

Length 24 m; beam 4.8 m; draft 2.5 m.

Type: Sailing vessel. MMSI: 211249810.

Date/timePositionNaut miles runAvg speedWind from/ knotsBaromVisibWave heightAir tempDewpointWater temp
2020-Jan-02 07:53N 54°57' E 010°16'0 0.0
2020-Jan-02 07:25N 54°57' E 010°16'0 0.0
2020-Jan-02 05:30N 54°57' E 010°16'0 0.0
2020-Jan-02 00:28N 54°57' E 010°16'0 0.0
2020-Jan-01 19:13N 54°57' E 010°16'0 0.0
2020-Jan-01 18:12N 54°57' E 010°16'0 0.0
2020-Jan-01 17:53N 54°57' E 010°16'0 0.0
2020-Jan-01 14:50N 54°57' E 010°16'14 4.6
2020-Jan-01 11:49N 55°03' E 010°37'0 0.0
2020-Jan-01 11:30N 55°03' E 010°37'0 0.0
2020-Jan-01 10:00N 55°03' E 010°37'0 0.0
2020-Jan-01 08:28N 55°03' E 010°37'0 0.0
2020-Jan-01 07:30N 55°03' E 010°37'0 0.0
2020-Jan-01 06:00N 55°03' E 010°37'0 0.0
2020-Jan-01 03:30N 55°03' E 010°37'0 0.0
2020-Jan-01 02:30N 55°03' E 010°37'0 0.0
2020-Jan-01 01:30N 55°03' E 010°37'0 0.0
2019-Dec-31 23:25N 55°03' E 010°37'0 0.0
2019-Dec-31 22:00N 55°03' E 010°37'0 0.0
2019-Dec-31 21:00N 55°03' E 010°37'0 0.0
2019-Dec-31 20:29N 55°03' E 010°37'0 0.0
2019-Dec-31 19:00N 55°03' E 010°37'0 0.0
2019-Dec-31 17:57N 55°03' E 010°37'0 0.0
2019-Dec-31 17:30N 55°03' E 010°37'0 0.0
2019-Dec-31 15:30N 55°03' E 010°37'0 0.0
2019-Dec-31 14:30N 55°03' E 010°37'0 0.0
2019-Dec-31 13:59N 55°03' E 010°37'6 3.7
2019-Dec-31 12:23N 54°59' E 010°29'3 3.4
2019-Dec-31 11:23N 54°56' E 010°29'5 1.4
2019-Dec-31 08:00N 54°51' E 010°31'0 0.0
2019-Dec-31 07:30N 54°51' E 010°31'0 0.0
2019-Dec-31 07:00N 54°51' E 010°31'0 0.0
2019-Dec-31 06:30N 54°51' E 010°31'0 0.0
2019-Dec-31 06:00N 54°51' E 010°31'0 0.0
2019-Dec-31 05:30N 54°51' E 010°31'0 0.0
2019-Dec-31 05:00N 54°51' E 010°31'0 0.0
2019-Dec-31 04:30N 54°51' E 010°31'0 0.0
2019-Dec-31 03:00N 54°51' E 010°31'0 0.0
2019-Dec-31 01:00N 54°51' E 010°31'0 0.0
2019-Dec-30 22:00N 54°51' E 010°31'0 0.0
2019-Dec-30 20:00N 54°51' E 010°31'0 0.0
2019-Dec-30 18:00N 54°51' E 010°31'0 0.0
2019-Dec-30 16:00N 54°51' E 010°31'0 0.0
2019-Dec-30 12:00N 54°51' E 010°31'  

Dump ship's entire track history